Time;durP1;ratioP1;P1;durP2;ratioP2;P2;SDS_P1;SDS_P2;PMS_P1;PMS_P2;Temp;Humidity;BMP_temperature;BMP_pressure;BME280_temperature;BME280_humidity;BME280_pressure;Samples;Min_cycle;Max_cycle;Signal;HPM_P1;HPM_P2
2021/12/03 00:02:20;;;;;;;16.55;7.00;;;;;;;1.61;70.11;96905.81;6785197;20;129329;-87
2021/12/03 00:04:53;;;;;;;14.77;6.40;;;;;;;1.63;70.14;96915.13;6811738;20;129389;-88
2021/12/03 00:07:24;;;;;;;21.20;7.10;;;;;;;1.57;70.36;96913.34;6808108;20;131674;-87
2021/12/03 00:09:54;;;;;;;14.87;6.73;;;;;;;1.59;70.80;96925.34;6813152;20;133300;-88
2021/12/03 00:12:24;;;;;;;16.60;7.67;;;;;;;1.68;70.43;96924.72;6814296;20;129679;-88
2021/12/03 00:14:54;;;;;;;14.23;6.77;;;;;;;1.68;70.55;96940.31;6813714;20;129147;-85
2021/12/03 00:17:24;;;;;;;15.60;8.03;;;;;;;1.60;70.72;96945.19;6809739;20;129934;-88
2021/12/03 00:19:57;;;;;;;16.17;7.43;;;;;;;1.67;70.93;96945.00;6811387;20;135291;-88
2021/12/03 00:22:27;;;;;;;16.20;7.20;;;;;;;1.72;70.81;96943.69;6815317;20;133442;-87
2021/12/03 00:24:57;;;;;;;22.90;7.47;;;;;;;1.69;70.56;96953.53;6813354;20;128932;-87
2021/12/03 00:27:27;;;;;;;13.70;6.83;;;;;;;1.84;70.50;96968.31;6815917;20;129776;-87
2021/12/03 00:29:57;;;;;;;15.47;6.57;;;;;;;2.05;70.05;96975.94;6813582;20;131747;-87
2021/12/03 00:32:27;;;;;;;15.53;6.40;;;;;;;2.19;69.41;96973.97;6811896;20;131197;-87
2021/12/03 00:35:00;;;;;;;14.40;7.00;;;;;;;2.27;68.70;96984.28;6815607;20;129707;-87
2021/12/03 00:37:30;;;;;;;15.07;7.47;;;;;;;2.37;68.78;96979.69;6809119;20;129390;-87
2021/12/03 00:40:01;;;;;;;17.27;7.50;;;;;;;2.28;68.29;96987.78;6812309;20;128846;-88
2021/12/03 00:42:32;;;;;;;15.73;7.07;;;;;;;2.39;68.17;96993.69;6809959;20;133220;-87
2021/12/03 00:45:03;;;;;;;14.57;7.47;;;;;;;2.51;67.87;96992.97;6812108;20;135253;-88
2021/12/03 00:47:33;;;;;;;12.57;6.10;;;;;;;2.47;67.28;96995.03;6806251;20;129089;-87
2021/12/03 00:50:11;;;;;;;14.47;7.53;;;;;;;2.44;66.98;96999.38;6812985;20;129861;-87
2021/12/03 00:52:41;;;;;;;15.93;7.10;;;;;;;2.43;66.90;97005.25;6814456;20;134870;-87
2021/12/03 00:55:12;;;;;;;14.90;7.45;;;;;;;2.51;66.62;97009.34;6809884;20;132707;-88
2021/12/03 00:57:43;;;;;;;18.77;8.82;;;;;;;2.52;66.34;97010.09;6808449;20;130256;-87
2021/12/03 01:00:19;;;;;;;16.97;8.00;;;;;;;2.53;66.38;97017.88;6810181;20;129142;-88
2021/12/03 01:02:49;;;;;;;13.87;7.30;;;;;;;2.46;66.53;97018.84;6818734;20;129301;-87
2021/12/03 01:05:23;;;;;;;14.43;7.72;;;;;;;2.43;66.31;97022.41;6813899;20;133315;-87
2021/12/03 01:07:53;;;;;;;15.40;8.27;;;;;;;2.34;66.59;97030.47;6809591;20;131639;-87
2021/12/03 01:10:24;;;;;;;19.27;7.77;;;;;;;2.33;66.79;97033.63;6815781;20;130652;-87
2021/12/03 01:12:56;;;;;;;14.85;7.97;;;;;;;2.33;66.87;97036.38;6823434;20;129494;-86
2021/12/03 01:15:30;;;;;;;15.60;7.53;;;;;;;2.35;66.79;97047.63;6814419;20;134686;-87
2021/12/03 01:18:01;;;;;;;14.47;7.87;;;;;;;2.36;67.01;97049.91;6817217;20;132493;-87
2021/12/03 01:20:34;;;;;;;16.37;8.63;;;;;;;2.36;67.23;97055.34;6817845;20;128895;-87
2021/12/03 01:23:06;;;;;;;18.30;8.13;;;;;;;2.30;67.45;97059.03;6815328;20;129141;-87
2021/12/03 01:25:36;;;;;;;16.80;8.23;;;;;;;2.36;67.75;97054.59;6813760;20;128887;-87
2021/12/03 01:28:08;;;;;;;15.40;7.57;;;;;;;2.43;67.72;97055.16;6819459;20;135963;-88
2021/12/03 01:30:41;;;;;;;14.80;8.13;;;;;;;2.50;67.71;97053.44;6819255;20;132875;-88
2021/12/03 01:33:12;;;;;;;17.33;8.93;;;;;;;2.40;67.72;97060.75;6818420;20;133893;-88
2021/12/03 01:35:48;;;;;;;19.53;8.70;;;;;;;2.47;67.99;97061.28;6821080;20;128920;-88
2021/12/03 01:38:19;;;;;;;18.27;8.23;;;;;;;2.46;67.78;97059.00;6819028;20;136208;-92
2021/12/03 01:40:50;;;;;;;;;;;;;;;2.40;68.14;97044.38;6819696;20;132528;-89
2021/12/03 01:43:24;;;;;;;15.90;8.30;;;;;;;2.37;68.13;97050.66;6817729;20;129788;-89
2021/12/03 01:45:57;;;;;;;14.80;7.23;;;;;;;2.41;68.56;97049.41;6813036;20;129226;-89
2021/12/03 01:48:29;;;;;;;14.33;7.93;;;;;;;2.47;68.31;97044.91;6816024;20;129084;-90
2021/12/03 01:51:03;;;;;;;20.23;8.77;;;;;;;2.42;68.43;97044.69;6820030;20;136013;-91
2021/12/03 01:53:37;;;;;;;18.37;8.77;;;;;;;2.47;68.43;97044.16;6818845;20;133644;-89
2021/12/03 01:56:14;;;;;;;17.23;8.00;;;;;;;2.53;68.13;97042.44;6814405;20;129330;-91
2021/12/03 01:58:47;;;;;;;17.67;7.70;;;;;;;2.43;67.66;97041.53;6819752;20;129033;-90
2021/12/03 02:01:21;;;;;;;14.30;6.90;;;;;;;2.49;67.40;97030.84;6816199;20;131980;-90
2021/12/03 02:03:55;;;;;;;15.50;7.43;;;;;;;2.52;67.33;97026.47;6816542;20;133116;-88
2021/12/03 02:06:29;;;;;;;17.30;7.93;;;;;;;2.41;67.71;97018.59;6814433;20;131057;-89
2021/12/03 02:09:01;;;;;;;15.17;7.77;;;;;;;2.43;67.72;97025.16;6816918;20;131557;-89
2021/12/03 02:11:31;;;;;;;14.40;6.83;;;;;;;2.37;67.71;97035.06;6817595;20;128881;-89
2021/12/03 02:14:02;;;;;;;17.13;7.07;;;;;;;2.43;67.58;97024.38;6818168;20;135428;-90
2021/12/03 02:16:32;;;;;;;12.85;6.32;;;;;;;2.35;66.96;97025.78;6816714;20;137651;-89
2021/12/03 02:19:03;;;;;;;9.83;5.83;;;;;;;2.39;67.06;97026.44;6821597;20;129151;-89
2021/12/03 02:21:36;;;;;;;13.75;7.05;;;;;;;2.15;67.54;97028.66;6816953;20;129878;-88
2021/12/03 02:24:07;;;;;;;13.00;6.73;;;;;;;2.01;68.17;97037.22;6819022;20;132974;-89
2021/12/03 02:26:39;;;;;;;12.38;6.72;;;;;;;2.05;68.17;97040.63;6817846;20;135039;-89
2021/12/03 02:29:09;;;;;;;12.03;5.80;;;;;;;2.10;68.02;97037.38;6822141;20;129079;-89
2021/12/03 02:31:39;;;;;;;15.30;6.53;;;;;;;2.11;67.89;97040.88;6821006;20;128967;-89
2021/12/03 02:34:09;;;;;;;9.57;5.37;;;;;;;1.97;67.98;97042.78;6824950;20;128910;-89
2021/12/03 02:36:42;;;;;;;13.43;5.97;;;;;;;1.85;68.34;97043.47;6818965;20;133594;-89
2021/12/03 02:39:13;;;;;;;11.20;6.17;;;;;;;1.73;68.71;97052.34;6814156;20;132993;-89
2021/12/03 02:41:43;;;;;;;19.73;7.17;;;;;;;1.65;68.88;97051.75;6822791;20;129285;-90
2021/12/03 02:44:13;;;;;;;13.33;6.47;;;;;;;1.71;69.08;97054.72;6820226;20;130440;-89
2021/12/03 02:46:44;;;;;;;15.37;7.63;;;;;;;1.71;69.09;97060.19;6816563;20;134418;-89
2021/12/03 02:49:15;;;;;;;11.70;5.33;;;;;;;1.58;68.66;97056.63;6817676;20;131397;-89
2021/12/03 02:51:48;;;;;;;12.57;6.27;;;;;;;1.29;68.92;97059.25;6817897;20;130063;-89
2021/12/03 02:54:19;;;;;;;14.30;4.93;;;;;;;1.06;69.23;97059.41;6816558;20;128972;-89
2021/12/03 02:56:49;;;;;;;13.27;6.23;;;;;;;1.05;69.69;97058.63;6816105;20;129160;-89
2021/12/03 02:59:19;;;;;;;13.18;6.00;;;;;;;1.02;69.76;97069.59;6821180;20;135897;-89
2021/12/03 03:01:49;;;;;;;14.23;6.27;;;;;;;1.12;69.68;97069.34;6817204;20;133483;-89
2021/12/03 03:04:21;;;;;;;10.10;5.33;;;;;;;1.16;69.31;97070.06;6821826;20;129038;-89
2021/12/03 03:06:55;;;;;;;11.83;5.10;;;;;;;1.15;69.34;97071.25;6818051;20;131391;-89
2021/12/03 03:09:31;;;;;;;15.00;6.23;;;;;;;1.18;69.41;97064.94;6817216;20;132002;-88
2021/12/03 03:12:02;;;;;;;12.03;6.70;;;;;;;0.98;69.50;97069.69;6818263;20;131269;-89
2021/12/03 03:14:32;;;;;;;;;;;;;;;0.86;70.27;97069.56;6817484;20;130280;-88
2021/12/03 03:17:03;;;;;;;14.33;6.27;;;;;;;0.81;70.49;97065.38;6815356;20;129447;-91
2021/12/03 03:19:40;;;;;;;14.77;6.47;;;;;;;0.79;70.46;97065.03;6817230;20;129686;-88
2021/12/03 03:22:13;;;;;;;16.33;6.80;;;;;;;0.75;70.78;97069.78;6820346;20;137810;-89
2021/12/03 03:24:45;;;;;;;14.17;6.43;;;;;;;0.79;70.54;97073.19;6819764;20;133954;-89
2021/12/03 03:27:17;;;;;;;12.63;6.33;;;;;;;0.91;70.50;97078.00;6820963;20;129780;-89
2021/12/03 03:29:48;;;;;;;13.73;7.20;;;;;;;0.81;70.13;97079.00;6816878;20;129433;-90
2021/12/03 03:32:19;;;;;;;;;;;;;;;0.81;70.40;97082.50;6818047;20;136533;-90
2021/12/03 03:34:50;;;;;;;13.50;5.97;;;;;;;0.80;70.36;97088.34;6818182;20;136772;-90
2021/12/03 03:37:23;;;;;;;15.43;6.55;;;;;;;0.79;70.27;97084.84;6815721;20;129647;-89
2021/12/03 03:39:54;;;;;;;12.60;5.90;;;;;;;0.82;70.38;97086.72;6815315;20;129465;-88
2021/12/03 03:42:24;;;;;;;12.67;5.97;;;;;;;0.91;69.97;97086.16;6816340;20;132110;-88
2021/12/03 03:44:54;;;;;;;11.47;5.67;;;;;;;0.94;69.73;97084.56;6813456;20;134961;-89
2021/12/03 03:47:25;;;;;;;11.03;5.40;;;;;;;0.80;69.80;97080.94;6815554;20;131288;-89
2021/12/03 03:49:55;;;;;;;14.97;5.83;;;;;;;0.74;70.09;97082.63;6821832;20;128976;-89
2021/12/03 03:52:30;;;;;;;10.67;5.50;;;;;;;0.75;70.08;97088.84;6814034;20;128395;-88
2021/12/03 03:55:00;;;;;;;11.30;6.00;;;;;;;0.82;70.20;97089.44;6813240;20;132868;-89
2021/12/03 03:57:31;;;;;;;9.90;5.20;;;;;;;0.79;69.90;97092.25;6811306;20;133178;-90
2021/12/03 04:00:01;;;;;;;13.07;5.63;;;;;;;0.79;69.84;97097.69;6813225;20;130183;-89
2021/12/03 04:02:41;;;;;;;10.37;5.50;;;;;;;0.82;69.81;97089.44;6813848;20;129115;-89
2021/12/03 04:05:12;;;;;;;10.27;5.22;;;;;;;0.78;69.79;97093.44;6816351;20;128986;-89
2021/12/03 04:07:45;;;;;;;9.95;5.40;;;;;;;0.62;70.32;97087.94;6812392;20;133302;-89
2021/12/03 04:10:15;;;;;;;10.27;5.67;;;;;;;0.52;70.90;97097.09;6814570;20;132724;-90
2021/12/03 04:12:45;;;;;;;9.07;4.63;;;;;;;0.47;70.87;97101.06;6816566;20;129125;-89
2021/12/03 04:15:17;;;;;;;10.30;4.90;;;;;;;0.41;70.98;97094.56;6814020;20;130885;-88
2021/12/03 04:17:48;;;;;;;14.73;5.30;;;;;;;0.38;70.99;97103.56;6814503;20;132479;-88
2021/12/03 04:20:20;;;;;;;10.23;5.73;;;;;;;0.40;71.17;97101.97;6812928;20;133295;-87
2021/12/03 04:22:54;;;;;;;9.73;5.83;;;;;;;0.47;70.93;97116.63;6815341;20;129327;-85
2021/12/03 04:25:26;;;;;;;10.50;5.30;;;;;;;0.46;70.74;97110.41;6810868;20;128859;-87
2021/12/03 04:27:56;;;;;;;9.03;4.53;;;;;;;0.47;70.92;97109.22;6811566;20;129365;-89
2021/12/03 04:30:30;;;;;;;13.00;6.27;;;;;;;0.44;70.41;97112.00;6813416;20;134782;-86
2021/12/03 04:33:02;;;;;;;14.27;6.93;;;;;;;0.40;71.00;97118.28;6819966;20;132245;-89
2021/12/03 04:35:32;;;;;;;8.77;5.10;;;;;;;0.37;70.87;97116.41;6809666;20;132495;-89
2021/12/03 04:38:07;;;;;;;10.60;4.93;;;;;;;0.39;70.87;97126.88;6818784;20;128950;-89
2021/12/03 04:40:40;;;;;;;10.83;5.07;;;;;;;0.24;71.00;97131.78;6818750;20;133714;-89
2021/12/03 04:43:11;;;;;;;8.90;4.63;;;;;;;0.12;71.59;97131.66;6819141;20;131214;-89
2021/12/03 04:45:41;;;;;;;10.00;4.93;;;;;;;0.12;71.66;97137.81;6818321;20;128942;-89
2021/12/03 04:48:12;;;;;;;9.63;5.63;;;;;;;0.14;71.61;97145.56;6817640;20;129004;-89
2021/12/03 04:50:44;;;;;;;10.65;5.43;;;;;;;0.05;71.70;97145.34;6818712;20;129242;-87
2021/12/03 04:53:19;;;;;;;13.43;5.37;;;;;;;0.07;71.96;97145.69;6819358;20;131649;-90
2021/12/03 04:55:51;;;;;;;10.00;5.10;;;;;;;0.22;71.55;97147.78;6828268;20;131879;-90
2021/12/03 04:58:21;;;;;;;9.67;4.37;;;;;;;0.25;70.97;97149.66;6822363;20;129499;-89
2021/12/03 05:00:56;;;;;;;10.70;4.93;;;;;;;0.17;71.37;97153.69;6820216;20;129692;-91
2021/12/03 05:03:29;;;;;;;9.17;5.10;;;;;;;0.22;71.25;97160.59;6821993;20;133217;-90
2021/12/03 05:06:02;;;;;;;9.27;4.80;;;;;;;0.13;71.19;97161.13;6818317;20;133151;-92
2021/12/03 05:08:35;;;;;;;15.37;4.87;;;;;;;-0.03;71.71;97161.00;6818684;20;128957;-88
2021/12/03 05:11:05;;;;;;;12.73;5.47;;;;;;;-0.09;72.08;97165.38;6818075;20;129254;-88
2021/12/03 05:13:39;;;;;;;10.53;4.80;;;;;;;-0.09;72.15;97176.25;6820498;20;128975;-88
2021/12/03 05:16:09;;;;;;;10.73;5.70;;;;;;;-0.07;71.95;97176.63;6820006;20;133346;-90
2021/12/03 05:18:42;;;;;;;13.83;7.13;;;;;;;-0.16;72.47;97182.56;6825025;20;131495;-88
2021/12/03 05:21:12;;;;;;;9.80;4.50;;;;;;;-0.24;72.31;97188.53;6820360;20;129550;-88
2021/12/03 05:23:44;;;;;;;8.80;4.50;;;;;;;-0.35;72.68;97198.81;6823260;20;129300;-87
2021/12/03 05:26:14;;;;;;;12.07;4.90;;;;;;;-0.23;72.37;97201.69;6822538;20;133751;-89
2021/12/03 05:28:45;;;;;;;8.97;4.87;;;;;;;-0.30;72.59;97199.13;6823048;20;133909;-88
2021/12/03 05:31:16;;;;;;;13.43;4.93;;;;;;;-0.24;72.20;97193.97;6826628;20;129602;-88
2021/12/03 05:33:46;;;;;;;9.30;4.65;;;;;;;-0.26;72.15;97201.75;6821318;20;128832;-88
2021/12/03 05:36:16;;;;;;;11.70;4.67;;;;;;;-0.31;72.25;97203.00;6824933;20;130208;-90
2021/12/03 05:38:49;;;;;;;12.00;4.90;;;;;;;-0.24;72.14;97199.41;6822298;20;133091;-90
2021/12/03 05:41:34;;;;;;;9.13;4.90;;;;;;;-0.25;71.72;97195.94;6828718;20;133258;-91
2021/12/03 05:44:07;;;;;;;12.70;5.07;;;;;;;-0.37;72.05;97212.03;6820093;20;129061;-90
2021/12/03 05:46:37;;;;;;;9.30;4.83;;;;;;;-0.42;72.17;97214.03;6820152;20;129349;-90
2021/12/03 05:49:07;;;;;;;14.40;5.07;;;;;;;-0.35;72.04;97218.56;6817512;20;135497;-88
2021/12/03 05:51:37;;;;;;;40.67;19.30;;;;;;;-0.36;72.03;97213.56;6819655;20;136806;-89
2021/12/03 05:54:11;;;;;;;10.20;4.73;;;;;;;-0.33;71.60;97218.16;6818327;20;131408;-90
2021/12/03 05:56:41;;;;;;;8.30;4.20;;;;;;;-0.27;71.59;97216.53;6817649;20;129681;-90
2021/12/03 05:59:11;;;;;;;9.43;4.80;;;;;;;-0.33;71.16;97216.22;6822268;20;129315;-89
2021/12/03 06:01:41;;;;;;;11.00;4.40;;;;;;;-0.48;71.47;97214.91;6821424;20;133495;-91
2021/12/03 06:04:12;;;;;;;9.70;4.25;;;;;;;-0.56;71.77;97227.03;6823979;20;131211;-90
2021/12/03 06:06:42;;;;;;;8.40;4.20;;;;;;;-0.54;71.47;97220.03;6812081;20;128896;-90
2021/12/03 06:09:15;;;;;;;11.97;5.37;;;;;;;-0.54;71.46;97222.75;6815941;20;128881;-90
2021/12/03 06:11:45;;;;;;;12.10;5.80;;;;;;;-0.53;71.38;97221.53;6819322;20;131780;-90
2021/12/03 06:14:15;;;;;;;7.20;4.37;;;;;;;-0.47;71.19;97210.97;6819932;20;132953;-90
2021/12/03 06:16:45;;;;;;;9.37;4.63;;;;;;;-0.52;71.09;97227.75;6816811;20;129445;-90
2021/12/03 06:19:15;;;;;;;9.77;4.30;;;;;;;-0.49;71.08;97225.00;6818320;20;129764;-90
2021/12/03 06:21:45;;;;;;;9.47;4.17;;;;;;;-0.57;70.98;97228.19;6816545;20;128970;-90
2021/12/03 06:24:18;;;;;;;11.10;4.30;;;;;;;-0.58;70.96;97232.88;6816242;20;133008;-91
2021/12/03 06:26:49;;;;;;;11.93;4.53;;;;;;;-0.60;71.06;97227.09;6821444;20;128985;-90
2021/12/03 06:29:19;;;;;;;9.30;4.30;;;;;;;-0.60;70.91;97232.53;6816258;20;129349;-90
2021/12/03 06:31:49;;;;;;;9.57;4.43;;;;;;;-0.49;71.07;97241.28;6815090;20;129372;-90
2021/12/03 06:34:19;;;;;;;9.13;4.40;;;;;;;-0.41;70.65;97245.44;6815927;20;131953;-90
2021/12/03 06:36:49;;;;;;;9.00;4.83;;;;;;;-0.39;70.76;97241.53;6817315;20;133841;-89
2021/12/03 06:39:22;;;;;;;13.00;5.07;;;;;;;-0.34;70.39;97241.09;6814994;20;128982;-90
2021/12/03 06:41:52;;;;;;;13.33;4.83;;;;;;;-0.39;70.26;97249.69;6814279;20;130662;-91
2021/12/03 06:44:23;;;;;;;23.27;10.57;;;;;;;-0.28;70.31;97250.31;6816250;20;129976;-90
2021/12/03 06:46:53;;;;;;;10.30;4.35;;;;;;;-0.23;70.07;97255.28;6819905;20;135200;-90
2021/12/03 06:49:25;;;;;;;10.07;4.32;;;;;;;-0.29;69.77;97260.41;6815353;20;129117;-91
2021/12/03 06:52:00;;;;;;;12.20;4.77;;;;;;;-0.40;69.76;97270.66;6818981;20;131828;-90
2021/12/03 06:54:34;;;;;;;10.37;4.60;;;;;;;-0.38;69.72;97270.25;6816189;20;129460;-90
2021/12/03 06:57:08;;;;;;;10.07;4.40;;;;;;;-0.49;69.66;97276.63;6813817;20;135249;-90
2021/12/03 06:59:39;;;;;;;8.20;5.17;;;;;;;-0.42;69.68;97276.53;6814336;20;133685;-90
2021/12/03 07:02:09;;;;;;;13.82;5.95;;;;;;;-0.38;69.82;97271.03;6815769;20;129833;-90
2021/12/03 07:04:40;;;;;;;10.63;4.83;;;;;;;-0.47;69.28;97276.97;6815114;20;128958;-90
2021/12/03 07:07:10;;;;;;;11.70;4.50;;;;;;;-0.53;69.55;97275.13;6813610;20;129365;-88
2021/12/03 07:09:43;;;;;;;6.97;3.57;;;;;;;-0.40;69.25;97284.25;6820119;20;132160;-88
2021/12/03 07:12:15;;;;;;;9.67;3.83;;;;;;;-0.47;68.91;97281.63;6815801;20;129389;-88
2021/12/03 07:14:45;;;;;;;8.07;4.07;;;;;;;-0.45;68.83;97290.91;6815062;20;130712;-88
2021/12/03 07:17:15;;;;;;;7.93;4.07;;;;;;;-0.45;69.11;97287.44;6813619;20;132084;-91
2021/12/03 07:19:45;;;;;;;9.57;4.37;;;;;;;-0.48;68.81;97291.75;6817152;20;134656;-88
2021/12/03 07:22:15;;;;;;;7.87;3.93;;;;;;;-0.40;69.21;97289.69;6814329;20;132757;-91
2021/12/03 07:24:48;;;;;;;7.03;3.73;;;;;;;-0.32;68.61;97290.38;6816603;20;129435;-88
2021/12/03 07:27:18;;;;;;;9.40;4.23;;;;;;;-0.44;68.60;97295.19;6811981;20;133093;-88
2021/12/03 07:29:50;;;;;;;8.63;4.17;;;;;;;-0.49;68.52;97300.28;6813365;20;128978;-88
2021/12/03 07:32:21;;;;;;;;;;;;;;;-0.42;68.35;97300.22;6820045;20;135323;-88
2021/12/03 07:34:52;;;;;;;9.75;4.05;;;;;;;-0.18;67.84;97303.78;6815182;20;130161;-87
2021/12/03 07:37:22;;;;;;;;;;;;;;;-0.05;67.23;97302.81;6813037;20;129190;-88
2021/12/03 07:39:56;;;;;;;8.33;3.60;;;;;;;-0.02;66.93;97291.13;6815055;20;128856;-89
2021/12/03 07:42:27;;;;;;;8.00;3.80;;;;;;;0.06;66.80;97296.47;6814850;20;133679;-88
2021/12/03 07:44:57;;;;;;;8.10;3.83;;;;;;;0.15;66.02;97292.03;6815321;20;132671;-89
2021/12/03 07:47:27;;;;;;;12.53;5.23;;;;;;;0.30;65.52;97296.06;6813740;20;128968;-88
2021/12/03 07:49:57;;;;;;;6.73;3.20;;;;;;;0.20;65.10;97298.97;6812679;20;134322;-89
2021/12/03 07:52:27;;;;;;;7.93;3.77;;;;;;;0.11;65.10;97304.16;6816140;20;131663;-89
2021/12/03 07:55:00;;;;;;;7.33;3.37;;;;;;;0.12;64.90;97314.59;6819598;20;132398;-89
2021/12/03 07:57:30;;;;;;;8.23;3.57;;;;;;;0.02;64.77;97310.09;6814223;20;129246;-89
2021/12/03 08:00:02;;;;;;;7.77;3.13;;;;;;;0.08;64.86;97316.63;6812190;20;129174;-88
2021/12/03 08:02:41;;;;;;;9.00;3.20;;;;;;;0.14;64.48;97323.13;6816713;20;128820;-88
2021/12/03 08:05:11;;;;;;;5.97;3.22;;;;;;;0.43;63.40;97323.47;6814712;20;134012;-88
2021/12/03 08:07:45;;;;;;;18.50;3.37;;;;;;;0.49;62.47;97330.00;6814305;20;131369;-88
2021/12/03 08:10:19;;;;;;;12.90;3.33;;;;;;;0.59;61.95;97334.50;6817294;20;129189;-88
2021/12/03 08:12:50;;;;;;;8.83;2.83;;;;;;;0.71;60.62;97349.47;6819565;20;131027;-89
2021/12/03 08:15:20;;;;;;;4.85;2.63;;;;;;;0.70;60.47;97335.13;6818526;20;128980;-89
2021/12/03 08:17:51;;;;;;;9.37;3.03;;;;;;;0.76;59.69;97340.84;6827725;20;135640;-89
2021/12/03 08:20:22;;;;;;;4.97;2.38;;;;;;;0.61;59.76;97353.91;6820974;20;132110;-88
2021/12/03 08:22:56;;;;;;;6.80;3.00;;;;;;;1.15;58.66;97349.13;6818104;20;129101;-89
2021/12/03 08:25:29;;;;;;;4.80;2.17;;;;;;;1.23;57.54;97347.03;6818980;20;129193;-88
2021/12/03 08:28:00;;;;;;;5.37;2.63;;;;;;;1.29;57.81;97350.81;6822255;20;135317;-90
2021/12/03 08:30:31;;;;;;;6.95;2.53;;;;;;;1.59;56.80;97347.13;6821979;20;131379;-89
2021/12/03 08:33:01;;;;;;;;;;;;;;;1.67;57.33;97347.75;6820556;20;129571;-89
2021/12/03 08:35:31;;;;;;;4.93;1.97;;;;;;;1.52;56.29;97348.03;6818440;20;129102;-89
2021/12/03 08:38:01;;;;;;;4.97;2.30;;;;;;;1.62;56.31;97346.28;6828544;20;129191;-88
2021/12/03 08:40:34;;;;;;;7.70;2.90;;;;;;;1.76;55.79;97356.16;6821764;20;134051;-89
2021/12/03 08:43:04;;;;;;;6.23;2.70;;;;;;;1.84;55.10;97352.84;6823357;20;130856;-89
2021/12/03 08:45:39;;;;;;;5.70;2.40;;;;;;;1.61;55.26;97366.56;6820161;20;131414;-89
2021/12/03 08:48:09;;;;;;;6.33;2.37;;;;;;;1.82;55.08;97357.97;6822765;20;128826;-89
2021/12/03 08:50:48;;;;;;;5.33;2.00;;;;;;;2.08;54.21;97350.00;6820300;20;131726;-89
2021/12/03 08:56:04;;;;;;;4.90;2.30;;;;;;;2.92;51.96;97355.47;6816774;20;129718;-88
2021/12/03 08:58:35;;;;;;;5.83;2.50;;;;;;;2.90;51.25;97355.13;6817679;20;129393;-88
2021/12/03 09:01:07;;;;;;;4.53;2.00;;;;;;;2.80;51.60;97356.16;6824993;20;129921;-88
2021/12/03 09:03:38;;;;;;;5.33;2.60;;;;;;;2.66;51.32;97356.50;6821899;20;133486;-88
2021/12/03 09:06:08;;;;;;;4.83;2.37;;;;;;;2.65;52.18;97360.44;6818020;20;130740;-89
2021/12/03 09:08:38;;;;;;;5.57;2.10;;;;;;;2.80;51.77;97372.56;6826594;20;128961;-86
2021/12/03 09:11:12;;;;;;;4.20;2.30;;;;;;;2.82;51.24;97368.22;6831067;20;128907;-87
2021/12/03 09:13:43;;;;;;;5.13;2.27;;;;;;;3.26;50.74;97349.53;6819677;20;137958;-87
2021/12/03 09:16:17;;;;;;;;;;;;;;;4.21;49.36;97357.06;6819446;20;132546;-88
2021/12/03 09:18:49;;;;;;;7.35;2.75;;;;;;;4.80;47.57;97352.88;6822593;20;128422;-88
2021/12/03 09:21:24;;;;;;;6.97;2.70;;;;;;;4.83;47.04;97360.25;6833871;20;130299;-88
2021/12/03 09:24:08;;;;;;;6.72;3.25;;;;;;;4.63;47.34;97357.72;6839822;20;128838;-88
2021/12/03 09:26:42;;;;;;;6.38;2.75;;;;;;;4.35;48.27;97366.81;6832506;20;131349;-89
2021/12/03 09:29:22;;;;;;;6.53;2.95;;;;;;;4.57;47.89;97372.41;6834288;20;130697;-88
2021/12/03 09:31:52;;;;;;;5.72;2.95;;;;;;;4.60;47.74;97355.09;6832401;20;129648;-88
2021/12/03 09:34:24;;;;;;;6.65;3.33;;;;;;;4.65;47.79;97355.31;6838523;20;129017;-88
2021/12/03 09:36:54;;;;;;;6.55;3.08;;;;;;;4.83;47.64;97354.75;6836066;20;132455;-87
2021/12/03 09:39:25;;;;;;;5.78;3.28;;;;;;;4.88;47.58;97359.69;6837764;20;134901;-87
2021/12/03 09:41:59;;;;;;;5.90;2.80;;;;;;;4.36;48.58;97362.88;6835158;20;129101;-88
2021/12/03 09:44:30;;;;;;;4.78;3.38;;;;;;;4.21;49.35;97354.31;6831104;20;128879;-88
2021/12/03 09:47:01;;;;;;;6.47;3.70;;;;;;;3.96;50.88;97357.78;6835143;20;129953;-88
2021/12/03 09:49:41;;;;;;;6.35;3.80;;;;;;;3.70;51.43;97378.84;6834512;20;132931;-86
2021/12/03 09:52:22;;;;;;;5.53;3.50;;;;;;;3.64;52.30;97357.91;6829628;20;129425;-88
2021/12/03 09:54:55;;;;;;;7.10;3.80;;;;;;;3.72;52.35;97351.78;6832653;20;129168;-87
2021/12/03 09:57:36;;;;;;;5.90;3.47;;;;;;;3.92;52.43;97340.69;6829572;20;128769;-88
2021/12/03 10:00:18;;;;;;;5.55;3.08;;;;;;;4.07;51.86;97336.31;6828910;20;134011;-87
2021/12/03 10:03:03;;;;;;;7.38;4.13;;;;;;;4.67;50.73;97336.47;6826243;20;134308;-88
2021/12/03 10:20:20;;;;;;;12.65;6.55;;;;;;;4.59;50.70;97328.91;6818668;20;129940;-87
2021/12/03 10:28:55;;;;;;;5.50;3.58;;;;;;;4.48;50.58;97327.25;6819621;20;132600;-88
2021/12/03 10:34:39;;;;;;;7.13;3.75;;;;;;;4.60;49.58;97344.91;6815559;20;130804;-88
2021/12/03 10:40:03;;;;;;;5.82;4.07;;;;;;;5.08;48.80;97335.50;6814533;20;135215;-86
2021/12/03 10:45:32;;;;;;;6.15;4.25;;;;;;;4.86;49.51;97334.69;6820546;20;128796;-87
2021/12/03 10:48:18;;;;;;;6.82;3.78;;;;;;;4.91;49.47;97328.63;6821200;20;129590;-86
2021/12/03 10:51:09;;;;;;;6.35;3.42;;;;;;;5.56;48.50;97319.75;6819585;20;133859;-88
2021/12/03 10:53:48;;;;;;;6.80;3.95;;;;;;;6.02;46.75;97318.88;6819065;20;132613;-88
2021/12/03 10:56:53;;;;;;;6.30;3.92;;;;;;;6.28;46.73;97324.19;6818846;20;131478;-88
2021/12/03 11:11:20;;;;;;;5.78;3.55;;;;;;;6.81;42.84;97322.88;6816410;20;133465;-89
2021/12/03 11:26:19;;;;;;;5.32;3.25;;;;;;;7.10;42.54;97311.47;6826576;20;129053;-89
2021/12/03 13:13:10;;;;;;;6.60;3.47;;;;;;;7.39;41.16;97251.25;6816798;20;135091;-90
2021/12/03 13:16:24;;;;;;;5.72;3.28;;;;;;;6.68;42.06;97253.50;6817630;20;134786;-90
2021/12/03 14:09:59;;;;;;;6.63;3.83;;;;;;;2.24;57.16;97249.84;6816820;20;128792;-89
2021/12/03 14:38:39;;;;;;;9.40;3.93;;;;;;;2.41;57.69;97226.06;6815307;20;132078;-90
2021/12/03 14:41:47;;;;;;;8.00;3.88;;;;;;;2.34;57.97;97216.09;6817187;20;130356;-89
2021/12/03 14:44:22;;;;;;;7.70;4.07;;;;;;;2.26;58.27;97220.16;6816021;20;132917;-90
2021/12/03 14:52:43;;;;;;;8.75;4.28;;;;;;;2.36;58.19;97221.88;6816547;20;130495;-89
2021/12/03 14:55:14;;;;;;;11.43;4.80;;;;;;;2.35;58.05;97225.81;6817213;20;133161;-89
2021/12/03 14:57:50;;;;;;;7.23;4.03;;;;;;;2.34;58.21;97224.28;6815092;20;132573;-89
2021/12/03 15:00:31;;;;;;;7.57;3.73;;;;;;;2.34;58.11;97210.63;6820558;20;128930;-90
2021/12/03 15:03:22;;;;;;;10.70;5.20;;;;;;;2.31;58.37;97216.16;6815375;20;129758;-90
2021/12/03 15:06:05;;;;;;;7.50;3.93;;;;;;;2.20;58.44;97210.97;6812634;20;129458;-90
2021/12/03 15:08:42;;;;;;;8.20;3.90;;;;;;;2.06;58.95;97214.03;6819883;20;132397;-89
2021/12/03 15:25:42;;;;;;;7.10;3.73;;;;;;;2.13;59.24;97211.13;6804456;20;130688;-89
2021/12/03 15:31:01;;;;;;;7.87;3.90;;;;;;;2.16;58.87;97212.25;6810680;20;129129;-89
2021/12/03 15:33:47;;;;;;;13.37;5.30;;;;;;;2.03;59.14;97201.25;6805454;20;131692;-90
2021/12/03 15:36:26;;;;;;;8.70;4.10;;;;;;;2.08;59.36;97208.13;6802774;20;131189;-91
2021/12/03 16:03:49;;;;;;;8.33;4.27;;;;;;;2.20;59.11;97200.03;6813107;20;129617;-89
2021/12/03 16:09:17;;;;;;;9.77;4.33;;;;;;;2.18;59.60;97212.59;6814759;20;133245;-89
2021/12/03 16:11:54;;;;;;;8.30;3.97;;;;;;;2.16;59.57;97218.47;6799155;20;131935;-88
2021/12/03 16:43:35;;;;;;;10.47;3.93;;;;;;;2.04;60.37;97189.91;6803134;20;131246;-88
2021/12/03 16:48:13;;;;;;;6.87;3.70;;;;;;;1.86;60.66;97164.25;6820287;20;132963;-88
2021/12/03 16:53:29;;;;;;;6.20;2.87;;;;;;;1.74;60.69;97159.47;6817311;20;129450;-89
2021/12/03 16:56:17;;;;;;;6.87;3.67;;;;;;;1.77;60.60;97155.91;6804975;20;129496;-88
2021/12/03 16:58:50;;;;;;;9.30;3.70;;;;;;;1.78;60.85;97157.41;6808919;20;135089;-89
2021/12/03 17:01:26;;;;;;;7.37;3.43;;;;;;;1.78;60.88;97162.88;6798775;20;135288;-89
2021/12/03 17:04:03;;;;;;;8.00;3.37;;;;;;;1.71;60.79;97143.97;6822497;20;128872;-88
2021/12/03 17:09:34;;;;;;;6.70;3.00;;;;;;;1.74;60.64;97134.91;6817378;20;131491;-88
2021/12/03 17:12:15;;;;;;;11.20;3.47;;;;;;;1.90;60.50;97146.59;6806683;20;133423;-88
2021/12/03 17:51:08;;;;;;;5.60;3.07;;;;;;;1.45;61.51;97151.16;6796023;20;132653;-87
2021/12/03 17:54:00;;;;;;;4.63;2.63;;;;;;;1.53;61.36;97142.38;6809620;20;132785;-86
2021/12/03 17:56:31;;;;;;;7.93;3.17;;;;;;;1.54;61.04;97140.44;6778335;20;129732;-87
2021/12/03 17:59:09;;;;;;;7.78;3.20;;;;;;;1.62;60.93;97155.44;6813377;20;130249;-88